createdAt,value
2018-06-30T00:02:27.096Z,21.73
2018-06-30T00:04:55.661Z,23.07
2018-06-30T00:07:24.302Z,21.37
2018-06-30T00:09:53.019Z,18.97
2018-06-30T00:12:21.843Z,23.47
2018-06-30T00:14:51.483Z,18.23
2018-06-30T00:17:20.112Z,20.10
2018-06-30T00:19:49.021Z,22.57
2018-06-30T00:22:17.620Z,19.33
2018-06-30T00:24:46.577Z,19.50
2018-06-30T00:27:20.239Z,19.90
2018-06-30T00:29:49.143Z,21.07
2018-06-30T00:32:17.687Z,20.33
2018-06-30T00:34:46.552Z,21.20
2018-06-30T00:37:15.302Z,18.70
2018-06-30T00:39:43.943Z,21.23
2018-06-30T00:42:12.433Z,20.03
2018-06-30T00:44:41.201Z,18.57
2018-06-30T00:47:09.808Z,23.63
2018-06-30T00:49:38.327Z,22.00
2018-06-30T00:52:06.638Z,20.43
2018-06-30T00:54:36.479Z,25.23
2018-06-30T00:57:05.163Z,19.57
2018-06-30T00:59:33.800Z,19.40
2018-06-30T01:02:02.335Z,27.57
2018-06-30T01:04:30.871Z,22.03
2018-06-30T01:06:59.416Z,20.27
2018-06-30T01:09:27.928Z,20.30
2018-06-30T01:11:56.418Z,20.20
2018-06-30T01:14:24.918Z,22.20
2018-06-30T01:16:53.633Z,17.53
2018-06-30T01:19:22.666Z,14.63
2018-06-30T01:21:51.208Z,22.20
2018-06-30T01:24:19.751Z,22.23
2018-06-30T01:26:48.302Z,19.80
2018-06-30T01:29:16.833Z,23.13
2018-06-30T01:31:45.641Z,20.20
2018-06-30T01:34:14.151Z,24.63
2018-06-30T01:36:42.720Z,18.63
2018-06-30T01:39:12.383Z,18.97
2018-06-30T01:41:41.540Z,22.27
2018-06-30T01:44:10.079Z,27.87
2018-06-30T01:46:38.626Z,18.50
2018-06-30T01:49:07.160Z,25.07
2018-06-30T01:51:35.688Z,19.80
2018-06-30T01:54:04.257Z,24.33
2018-06-30T01:56:32.756Z,22.67
2018-06-30T01:59:01.541Z,27.20
2018-06-30T02:01:30.248Z,19.70
2018-06-30T02:03:58.764Z,24.87
2018-06-30T02:06:27.347Z,16.63
2018-06-30T02:08:55.846Z,23.30
2018-06-30T02:11:24.620Z,24.50
2018-06-30T02:13:53.915Z,19.17
2018-06-30T02:16:22.105Z,21.97
2018-06-30T02:18:50.630Z,22.90
2018-06-30T02:21:19.102Z,16.37
2018-06-30T02:23:47.797Z,22.90
2018-06-30T02:26:16.291Z,18.03
2018-06-30T02:28:44.830Z,25.57
2018-06-30T02:31:13.397Z,21.77
2018-06-30T02:33:41.902Z,24.57
2018-06-30T02:36:10.454Z,21.97
2018-06-30T02:38:38.959Z,26.87
2018-06-30T02:41:07.665Z,19.53
2018-06-30T02:43:36.166Z,22.17
2018-06-30T02:46:04.836Z,19.30
2018-06-30T02:48:33.287Z,18.20
2018-06-30T02:51:01.783Z,28.00
2018-06-30T02:53:29.974Z,20.50
2018-06-30T02:55:58.602Z,21.87
2018-06-30T02:58:27.109Z,20.10
2018-06-30T03:00:55.584Z,19.23
2018-06-30T03:03:24.092Z,18.30
2018-06-30T03:05:52.566Z,22.33
2018-06-30T03:08:21.302Z,22.57
2018-06-30T03:10:49.817Z,19.23
2018-06-30T03:13:18.357Z,25.60
2018-06-30T03:15:46.854Z,19.33
2018-06-30T03:18:15.337Z,22.50
2018-06-30T03:20:43.834Z,19.53
2018-06-30T03:23:12.308Z,22.17
2018-06-30T03:25:40.817Z,23.53
2018-06-30T03:28:09.052Z,19.17
2018-06-30T03:30:38.108Z,26.80
2018-06-30T03:33:06.592Z,23.47
2018-06-30T03:35:35.470Z,24.40
2018-06-30T03:38:03.932Z,23.60
2018-06-30T03:40:32.265Z,22.40
2018-06-30T03:43:00.777Z,23.90
2018-06-30T03:45:29.290Z,21.43
2018-06-30T03:47:57.821Z,25.03
2018-06-30T03:50:26.652Z,21.00
2018-06-30T03:52:55.147Z,23.30
2018-06-30T03:55:23.886Z,21.03
2018-06-30T03:57:52.377Z,25.07
2018-06-30T04:00:21.210Z,26.50
2018-06-30T04:02:49.739Z,28.43
2018-06-30T04:05:18.232Z,24.17
2018-06-30T04:07:46.841Z,27.10
2018-06-30T04:10:15.374Z,20.83
2018-06-30T04:12:44.035Z,24.43
2018-06-30T04:15:12.553Z,26.20
2018-06-30T04:17:41.209Z,20.07
2018-06-30T04:20:09.754Z,21.63
2018-06-30T04:22:38.276Z,25.60
2018-06-30T04:25:06.870Z,24.50
2018-06-30T04:27:35.418Z,20.20
2018-06-30T04:30:04.525Z,20.07
2018-06-30T04:32:33.055Z,20.43
2018-06-30T04:35:02.098Z,21.60
2018-06-30T04:37:30.740Z,27.87
2018-06-30T04:39:59.253Z,23.23
2018-06-30T04:42:27.808Z,28.57
2018-06-30T04:44:56.319Z,20.27
2018-06-30T04:47:24.854Z,21.13
2018-06-30T04:49:53.363Z,24.40
2018-06-30T04:52:21.928Z,20.27
2018-06-30T04:54:50.429Z,21.53
2018-06-30T04:57:19.110Z,20.67
2018-06-30T04:59:47.689Z,24.53
2018-06-30T05:02:16.209Z,27.47
2018-06-30T05:04:44.880Z,29.23
2018-06-30T05:07:13.392Z,21.70
2018-06-30T05:09:41.948Z,21.73
2018-06-30T05:12:10.442Z,19.40
2018-06-30T05:14:38.960Z,20.53
2018-06-30T05:17:07.473Z,17.60
2018-06-30T05:19:36.087Z,25.13
2018-06-30T05:22:04.617Z,28.77
2018-06-30T05:24:33.280Z,25.20
2018-06-30T05:27:01.801Z,21.80
2018-06-30T05:29:30.373Z,20.70
2018-06-30T05:31:58.929Z,24.90
2018-06-30T05:34:28.462Z,24.97
2018-06-30T05:36:57.013Z,27.13
2018-06-30T05:39:25.725Z,25.83
2018-06-30T05:41:54.580Z,25.63
2018-06-30T05:44:23.066Z,29.23
2018-06-30T05:46:51.658Z,29.93
2018-06-30T05:49:20.570Z,22.77
2018-06-30T05:51:49.095Z,26.13
2018-06-30T05:54:17.635Z,22.80
2018-06-30T05:56:46.132Z,22.73
2018-06-30T05:59:14.648Z,22.67
2018-06-30T06:01:43.675Z,22.97
2018-06-30T06:04:12.441Z,19.20
2018-06-30T06:06:40.945Z,27.30
2018-06-30T06:09:11.260Z,24.57
2018-06-30T06:11:39.919Z,28.40
2018-06-30T06:14:08.771Z,20.00
2018-06-30T06:16:37.609Z,24.90
2018-06-30T06:19:07.149Z,20.80
2018-06-30T06:21:35.673Z,23.90
2018-06-30T06:24:04.361Z,28.33
2018-06-30T06:26:32.907Z,20.83
2018-06-30T06:29:01.461Z,25.90
2018-06-30T06:31:29.986Z,24.33
2018-06-30T06:33:58.709Z,20.83
2018-06-30T06:36:27.231Z,24.30
2018-06-30T06:38:55.757Z,23.00
2018-06-30T06:41:24.337Z,31.00
2018-06-30T06:43:53.061Z,24.23
2018-06-30T06:46:21.913Z,25.97
2018-06-30T06:48:50.477Z,26.33
2018-06-30T06:51:18.699Z,23.77
2018-06-30T06:53:47.360Z,26.33
2018-06-30T06:56:15.918Z,26.50
2018-06-30T06:58:44.459Z,20.60
2018-06-30T07:01:13.013Z,21.17
2018-06-30T07:03:41.703Z,27.33
2018-06-30T07:06:10.280Z,18.90
2018-06-30T07:08:39.092Z,28.00
2018-06-30T07:11:07.765Z,21.43
2018-06-30T07:13:38.287Z,20.87
2018-06-30T07:16:07.359Z,23.27
2018-06-30T07:18:37.315Z,20.83
2018-06-30T07:21:06.174Z,24.47
2018-06-30T07:23:35.017Z,26.40
2018-06-30T07:26:03.627Z,23.50
2018-06-30T07:28:32.421Z,24.80
2018-06-30T07:31:00.932Z,17.93
2018-06-30T07:33:29.486Z,24.00
2018-06-30T07:35:57.992Z,25.43
2018-06-30T07:38:26.542Z,22.73
2018-06-30T07:40:55.443Z,21.37
2018-06-30T07:43:24.199Z,25.93
2018-06-30T07:45:52.789Z,23.30
2018-06-30T07:48:21.330Z,24.37
2018-06-30T07:50:50.037Z,31.20
2018-06-30T07:53:18.550Z,23.47
2018-06-30T07:55:47.106Z,25.03
2018-06-30T07:58:15.604Z,26.27
2018-06-30T08:00:44.413Z,22.93
2018-06-30T08:03:12.905Z,27.20
2018-06-30T08:05:41.468Z,19.50
2018-06-30T08:08:10.314Z,21.73
2018-06-30T08:10:38.872Z,20.57
2018-06-30T08:13:07.903Z,25.33
2018-06-30T08:15:36.451Z,23.13
2018-06-30T08:18:04.965Z,26.43
2018-06-30T08:20:33.478Z,28.47
2018-06-30T08:23:02.035Z,25.07
2018-06-30T08:25:30.616Z,31.00
2018-06-30T08:27:59.216Z,21.57
2018-06-30T08:30:27.998Z,21.57
2018-06-30T08:32:56.695Z,25.20
2018-06-30T08:35:25.432Z,20.57
2018-06-30T08:37:53.998Z,20.57
2018-06-30T08:40:22.584Z,21.87
2018-06-30T08:42:51.165Z,19.87
2018-06-30T08:45:19.666Z,20.57
2018-06-30T08:47:48.260Z,15.63
2018-06-30T08:50:16.776Z,20.93
2018-06-30T08:52:45.329Z,18.30
2018-06-30T08:55:13.882Z,22.27
2018-06-30T08:57:42.627Z,17.40
2018-06-30T09:00:11.190Z,18.80
2018-06-30T09:02:39.685Z,17.13
2018-06-30T09:05:08.219Z,19.30
2018-06-30T09:07:36.767Z,17.20
2018-06-30T09:10:05.957Z,17.60
2018-06-30T09:12:34.570Z,18.87
2018-06-30T09:15:03.508Z,13.57
2018-06-30T09:17:32.011Z,15.73
2018-06-30T09:20:00.537Z,17.47
2018-06-30T09:22:29.072Z,18.00
2018-06-30T09:24:57.633Z,20.10
2018-06-30T09:27:26.216Z,16.27
2018-06-30T09:29:54.899Z,16.00
2018-06-30T09:32:23.428Z,16.80
2018-06-30T09:34:51.984Z,15.00
2018-06-30T09:37:20.545Z,14.13
2018-06-30T09:39:49.065Z,12.70
2018-06-30T09:42:17.706Z,15.33
2018-06-30T09:44:46.267Z,14.00
2018-06-30T09:47:14.740Z,12.23
2018-06-30T09:49:43.241Z,14.30
2018-06-30T09:52:11.780Z,14.70
2018-06-30T09:54:40.003Z,12.33
2018-06-30T09:57:09.070Z,12.90
2018-06-30T09:59:37.717Z,12.17
2018-06-30T10:02:06.264Z,13.90
2018-06-30T10:04:34.965Z,13.47
2018-06-30T10:07:03.699Z,15.17
2018-06-30T10:09:32.324Z,16.23
2018-06-30T10:12:01.035Z,12.90
2018-06-30T10:14:29.614Z,17.77
2018-06-30T10:16:58.090Z,15.08
2018-06-30T10:19:26.661Z,15.87
2018-06-30T10:21:55.233Z,16.53
2018-06-30T10:24:23.798Z,14.83
2018-06-30T10:26:53.209Z,17.00
2018-06-30T10:29:21.707Z,14.87
2018-06-30T10:31:50.505Z,17.20
2018-06-30T10:34:19.094Z,15.67
2018-06-30T10:36:48.341Z,16.03
2018-06-30T10:39:17.045Z,16.83
2018-06-30T10:41:45.643Z,18.73
2018-06-30T10:44:14.147Z,17.83
2018-06-30T10:46:43.415Z,19.77
2018-06-30T10:49:11.999Z,13.57
2018-06-30T10:51:40.535Z,15.10
2018-06-30T10:54:09.155Z,15.70
2018-06-30T10:56:37.721Z,19.87
2018-06-30T10:59:06.554Z,19.20
2018-06-30T11:01:35.119Z,17.07
2018-06-30T11:04:03.754Z,15.70
2018-06-30T11:06:32.328Z,16.13
2018-06-30T11:09:00.903Z,16.73
2018-06-30T11:11:29.496Z,17.03
2018-06-30T11:13:58.063Z,19.50
2018-06-30T11:16:26.364Z,17.27
2018-06-30T11:18:54.931Z,19.23
2018-06-30T11:21:23.563Z,15.00
2018-06-30T11:23:52.246Z,18.47
2018-06-30T11:26:20.915Z,17.07
2018-06-30T11:28:49.616Z,20.30
2018-06-30T11:31:18.466Z,15.37
2018-06-30T11:33:47.241Z,17.60
2018-06-30T11:36:15.755Z,15.87
2018-06-30T11:38:44.298Z,18.60
2018-06-30T11:41:12.898Z,12.67
2018-06-30T11:43:41.488Z,16.40
2018-06-30T11:46:10.100Z,17.90
2018-06-30T11:48:38.648Z,15.63
2018-06-30T11:51:07.302Z,16.20
2018-06-30T11:53:36.136Z,23.17
2018-06-30T11:56:04.831Z,16.23
2018-06-30T11:58:33.530Z,16.83
2018-06-30T12:01:02.229Z,16.37
2018-06-30T12:03:30.826Z,15.97
2018-06-30T12:06:00.220Z,20.13
2018-06-30T12:08:29.007Z,18.80
2018-06-30T12:10:58.036Z,18.10
2018-06-30T12:13:26.544Z,15.23
2018-06-30T12:15:55.335Z,18.17
2018-06-30T12:18:23.866Z,17.27
2018-06-30T12:20:52.395Z,16.33
2018-06-30T12:23:20.894Z,16.97
2018-06-30T12:25:49.421Z,16.47
2018-06-30T12:28:18.529Z,16.13
2018-06-30T12:30:47.327Z,14.80
2018-06-30T12:33:15.961Z,19.83
2018-06-30T12:35:44.538Z,12.70
2018-06-30T12:38:13.676Z,16.43
2018-06-30T12:40:42.202Z,15.23
2018-06-30T12:43:10.769Z,15.23
2018-06-30T12:45:39.299Z,16.97
2018-06-30T12:48:08.386Z,14.47
2018-06-30T12:50:36.729Z,13.97
2018-06-30T12:53:05.800Z,12.23
2018-06-30T12:55:34.349Z,20.37
2018-06-30T12:58:02.885Z,18.13
2018-06-30T13:00:31.573Z,13.83
2018-06-30T13:03:00.170Z,17.10
2018-06-30T13:05:28.528Z,17.93
2018-06-30T13:07:57.148Z,15.13
2018-06-30T13:10:25.965Z,15.97
2018-06-30T13:12:54.653Z,15.50
2018-06-30T13:15:23.197Z,11.13
2018-06-30T13:17:52.021Z,15.60
2018-06-30T13:20:20.792Z,13.83
2018-06-30T13:22:50.386Z,15.50
2018-06-30T13:25:18.982Z,16.00
2018-06-30T13:27:47.506Z,13.80
2018-06-30T13:30:16.039Z,14.57
2018-06-30T13:32:44.956Z,14.13
2018-06-30T13:35:13.872Z,14.27
2018-06-30T13:37:42.461Z,13.80
2018-06-30T13:40:11.363Z,15.57
2018-06-30T13:42:39.545Z,12.17
2018-06-30T13:45:09.537Z,12.57
2018-06-30T13:47:38.160Z,15.53
2018-06-30T13:50:07.657Z,12.00
2018-06-30T13:52:36.691Z,11.63
2018-06-30T13:55:05.595Z,10.10
2018-06-30T13:57:34.492Z,14.67
2018-06-30T14:00:03.343Z,11.63
2018-06-30T14:02:31.890Z,15.90
2018-06-30T14:05:00.414Z,11.93
2018-06-30T14:07:29.068Z,12.07
2018-06-30T14:09:57.796Z,9.83
2018-06-30T14:12:27.376Z,12.63
2018-06-30T14:14:55.924Z,11.80
2018-06-30T14:17:24.530Z,11.07
2018-06-30T14:19:53.029Z,11.77
2018-06-30T14:22:21.620Z,13.03
2018-06-30T14:24:50.120Z,11.17
2018-06-30T14:27:20.202Z,12.13
2018-06-30T14:29:48.739Z,8.23
2018-06-30T14:32:16.994Z,13.90
2018-06-30T14:34:45.540Z,11.40
2018-06-30T14:37:14.538Z,11.90
2018-06-30T14:39:43.135Z,13.27
2018-06-30T14:42:11.681Z,8.97
2018-06-30T14:44:40.216Z,11.30
2018-06-30T14:47:08.791Z,11.77
2018-06-30T14:49:37.444Z,9.40
2018-06-30T14:52:06.043Z,10.47
2018-06-30T14:54:34.848Z,8.83
2018-06-30T14:57:03.432Z,10.27
2018-06-30T14:59:32.236Z,11.93
2018-06-30T15:02:00.792Z,10.67
2018-06-30T15:04:29.411Z,6.23
2018-06-30T15:06:57.978Z,9.70
2018-06-30T15:09:26.522Z,11.40
2018-06-30T15:11:55.145Z,10.10
2018-06-30T15:14:24.117Z,10.00
2018-06-30T15:16:53.019Z,7.90
2018-06-30T15:19:21.549Z,8.53
2018-06-30T15:21:50.408Z,8.70
2018-06-30T15:24:19.021Z,10.70
2018-06-30T15:26:47.596Z,11.47
2018-06-30T15:29:16.420Z,7.90
2018-06-30T15:31:44.991Z,9.63
2018-06-30T15:34:13.695Z,9.37
2018-06-30T15:36:42.460Z,8.33
2018-06-30T15:39:11.731Z,7.90
2018-06-30T15:41:40.365Z,7.30
2018-06-30T15:44:08.978Z,11.00
2018-06-30T15:46:37.591Z,5.67
2018-06-30T15:49:06.561Z,9.10
2018-06-30T15:51:35.369Z,8.57
2018-06-30T15:54:04.424Z,9.70
2018-06-30T15:56:32.991Z,8.03
2018-06-30T15:59:01.522Z,7.50
2018-06-30T16:01:30.403Z,6.17
2018-06-30T16:03:59.095Z,6.37
2018-06-30T16:06:27.623Z,6.40
2018-06-30T16:08:56.173Z,4.77
2018-06-30T16:11:24.710Z,7.10
2018-06-30T16:13:53.348Z,6.00
2018-06-30T16:16:22.249Z,4.93
2018-06-30T16:18:51.187Z,4.57
2018-06-30T16:21:19.864Z,4.40
2018-06-30T16:23:48.378Z,4.30
2018-06-30T16:26:16.925Z,4.97
2018-06-30T16:28:46.069Z,6.00
2018-06-30T16:31:14.560Z,7.53
2018-06-30T16:33:43.328Z,5.30
2018-06-30T16:36:11.862Z,4.47
2018-06-30T16:38:40.734Z,4.63
2018-06-30T16:41:08.948Z,6.70
2018-06-30T16:43:37.437Z,6.97
2018-06-30T16:46:06.211Z,4.23
2018-06-30T16:48:34.984Z,6.27
2018-06-30T16:51:03.586Z,7.03
2018-06-30T16:53:32.194Z,4.83
2018-06-30T16:56:00.860Z,7.47
2018-06-30T16:58:29.491Z,3.67
2018-06-30T17:00:57.706Z,5.90
2018-06-30T17:03:26.296Z,6.83
2018-06-30T17:05:54.834Z,6.07
2018-06-30T17:08:23.424Z,4.47
2018-06-30T17:10:51.972Z,6.33
2018-06-30T17:13:20.467Z,4.57
2018-06-30T17:15:48.995Z,3.80
2018-06-30T17:18:17.646Z,4.87
2018-06-30T17:20:46.314Z,4.20
2018-06-30T17:23:14.900Z,4.03
2018-06-30T17:25:43.798Z,4.47
2018-06-30T17:28:12.295Z,6.53
2018-06-30T17:30:40.916Z,6.17
2018-06-30T17:33:09.493Z,6.90
2018-06-30T17:35:38.049Z,6.57
2018-06-30T17:38:07.267Z,7.20
2018-06-30T17:40:35.850Z,5.37
2018-06-30T17:43:04.374Z,4.63
2018-06-30T17:45:33.074Z,4.30
2018-06-30T17:48:01.791Z,5.53
2018-06-30T17:53:11.052Z,4.27
2018-06-30T17:55:39.737Z,4.73
2018-06-30T17:58:08.290Z,3.90
2018-06-30T18:00:36.904Z,3.03
2018-06-30T18:03:06.075Z,4.43
2018-06-30T18:05:34.615Z,4.50
2018-06-30T18:08:03.115Z,6.80
2018-06-30T18:10:31.360Z,7.77
2018-06-30T18:12:59.942Z,4.10
2018-06-30T18:15:28.468Z,3.77
2018-06-30T18:17:56.995Z,3.37
2018-06-30T18:20:25.604Z,4.83
2018-06-30T18:22:54.091Z,4.47
2018-06-30T18:25:22.664Z,2.60
2018-06-30T18:27:50.848Z,4.93
2018-06-30T18:30:19.366Z,4.13
2018-06-30T18:32:48.253Z,4.60
2018-06-30T18:35:16.882Z,5.30
2018-06-30T18:37:45.431Z,3.37
2018-06-30T18:40:14.205Z,2.93
2018-06-30T18:42:42.894Z,4.17
2018-06-30T18:45:11.412Z,4.90
2018-06-30T18:47:40.117Z,4.20
2018-06-30T18:50:08.636Z,5.63
2018-06-30T18:52:37.223Z,3.50
2018-06-30T18:55:06.184Z,3.33
2018-06-30T18:57:35.094Z,5.13
2018-06-30T19:00:03.658Z,4.27
2018-06-30T19:02:32.170Z,4.37
2018-06-30T19:05:00.754Z,5.60
2018-06-30T19:07:29.268Z,4.03
2018-06-30T19:09:57.852Z,4.93
2018-06-30T19:12:26.430Z,4.07
2018-06-30T19:14:55.190Z,4.37
2018-06-30T19:17:23.887Z,6.17
2018-06-30T19:19:52.757Z,4.83
2018-06-30T19:22:21.269Z,6.53
2018-06-30T19:24:49.902Z,5.10
2018-06-30T19:27:18.604Z,5.13
2018-06-30T19:29:47.309Z,6.97
2018-06-30T19:32:15.891Z,4.67
2018-06-30T19:34:44.471Z,4.93
2018-06-30T19:37:13.018Z,2.80
2018-06-30T19:39:41.559Z,5.37
2018-06-30T19:42:10.501Z,6.90
2018-06-30T19:44:38.970Z,2.83
2018-06-30T19:47:07.782Z,3.63
2018-06-30T19:49:36.312Z,4.77
2018-06-30T19:52:04.885Z,4.13
2018-06-30T19:54:33.663Z,6.23
2018-06-30T19:57:02.194Z,5.50
2018-06-30T19:59:30.696Z,5.07
2018-06-30T20:01:59.226Z,4.10
2018-06-30T20:04:28.256Z,3.00
2018-06-30T20:06:56.756Z,5.40
2018-06-30T20:09:25.426Z,4.00
2018-06-30T20:11:53.964Z,4.67
2018-06-30T20:14:22.709Z,5.40
2018-06-30T20:16:51.224Z,4.67
2018-06-30T20:19:19.793Z,4.17
2018-06-30T20:21:48.421Z,3.33
2018-06-30T20:24:17.075Z,5.07
2018-06-30T20:26:45.479Z,4.43
2018-06-30T20:29:14.162Z,4.40
2018-06-30T20:31:43.296Z,2.60
2018-06-30T20:34:11.833Z,3.27
2018-06-30T20:36:40.305Z,3.00
2018-06-30T20:39:10.229Z,6.60
2018-06-30T20:41:39.133Z,3.73
2018-06-30T20:44:10.401Z,3.33
2018-06-30T20:46:39.264Z,2.30
2018-06-30T20:49:07.888Z,2.27
2018-06-30T20:51:36.402Z,3.53
2018-06-30T20:54:04.987Z,3.60
2018-06-30T20:56:33.536Z,3.40
2018-06-30T20:59:02.122Z,4.20
2018-06-30T21:01:30.609Z,3.77
2018-06-30T21:03:59.172Z,4.33
2018-06-30T21:06:27.703Z,2.30
2018-06-30T21:08:56.197Z,4.80
2018-06-30T21:11:24.872Z,2.53
2018-06-30T21:13:53.410Z,1.93
2018-06-30T21:16:21.932Z,2.50
2018-06-30T21:18:50.464Z,4.40
2018-06-30T21:21:18.991Z,2.07
2018-06-30T21:23:47.557Z,2.50
2018-06-30T21:26:16.080Z,4.33
2018-06-30T21:28:44.574Z,4.57
2018-06-30T21:31:13.425Z,1.73
2018-06-30T21:33:42.011Z,2.77
2018-06-30T21:36:10.524Z,6.40
2018-06-30T21:38:38.861Z,2.87
2018-06-30T21:41:07.739Z,1.90
2018-06-30T21:43:36.881Z,2.67
2018-06-30T21:46:05.857Z,3.67
2018-06-30T21:48:34.543Z,2.70
2018-06-30T21:51:03.063Z,3.37
2018-06-30T21:53:31.617Z,2.13
2018-06-30T21:56:00.264Z,4.57
2018-06-30T21:58:28.956Z,2.23
2018-06-30T22:01:31.995Z,1.97
2018-06-30T22:04:00.813Z,1.70
2018-06-30T22:06:29.375Z,2.70
2018-06-30T22:08:58.011Z,1.50
2018-06-30T22:11:26.593Z,1.73
2018-06-30T22:13:55.181Z,4.13
2018-06-30T22:16:23.881Z,2.47
2018-06-30T22:18:53.050Z,3.20
2018-06-30T22:21:21.569Z,1.97
2018-06-30T22:23:50.256Z,1.63
2018-06-30T22:26:18.827Z,4.63
2018-06-30T22:28:48.459Z,1.47
2018-06-30T22:31:16.605Z,1.40
2018-06-30T22:33:45.131Z,1.57
2018-06-30T22:36:14.082Z,3.00
2018-06-30T22:38:42.590Z,2.23
2018-06-30T22:41:10.762Z,5.23
2018-06-30T22:43:39.292Z,3.43
2018-06-30T22:46:08.354Z,2.50
2018-06-30T22:48:36.895Z,3.67
2018-06-30T22:51:05.475Z,1.87
2018-06-30T22:53:34.187Z,3.30
2018-06-30T22:56:02.774Z,2.50
2018-06-30T22:58:31.496Z,1.33
2018-06-30T23:01:00.171Z,2.30
2018-06-30T23:03:28.856Z,3.17
2018-06-30T23:05:57.358Z,3.23
2018-06-30T23:08:26.233Z,2.37
2018-06-30T23:10:55.123Z,1.87
2018-06-30T23:13:24.080Z,1.57
2018-06-30T23:15:53.390Z,1.53
2018-06-30T23:18:21.997Z,2.00
2018-06-30T23:20:50.595Z,1.60
2018-06-30T23:23:19.101Z,2.57
2018-06-30T23:25:47.610Z,1.33
2018-06-30T23:28:16.146Z,3.73
2018-06-30T23:30:44.727Z,1.10
2018-06-30T23:33:13.440Z,2.97
2018-06-30T23:35:41.920Z,3.33
2018-06-30T23:38:10.424Z,2.90
2018-06-30T23:40:39.127Z,3.50
2018-06-30T23:43:07.843Z,2.27
2018-06-30T23:45:36.364Z,1.87
2018-06-30T23:48:05.473Z,2.90
2018-06-30T23:50:34.395Z,2.00
2018-06-30T23:53:03.959Z,2.00
2018-06-30T23:55:32.697Z,1.20
2018-06-30T23:58:01.603Z,1.23
